createdAt,value
2023-02-22T03:58:51.226Z,18.84
2023-02-22T03:59:51.640Z,18.84
2023-02-22T04:00:52.405Z,18.86
2023-02-22T04:01:53.340Z,18.87
2023-02-22T04:02:53.029Z,18.91
2023-02-22T04:03:51.736Z,18.94
2023-02-22T04:04:52.081Z,18.95
2023-02-22T04:05:52.486Z,18.98
2023-02-22T04:06:52.474Z,19.02
2023-02-22T04:07:57.613Z,19.05
2023-02-22T04:08:53.937Z,19.08
2023-02-22T04:09:53.543Z,19.10
2023-02-22T04:10:53.167Z,19.11
2023-02-22T04:11:53.767Z,19.14
2023-02-22T04:12:54.884Z,19.15
2023-02-22T04:13:54.187Z,19.17
2023-02-22T04:14:54.944Z,19.17
2023-02-22T04:15:54.342Z,19.20
2023-02-22T04:16:55.223Z,19.20
2023-02-22T04:17:53.995Z,19.23
2023-02-22T04:18:54.844Z,19.21
2023-02-22T04:19:55.087Z,19.24
2023-02-22T04:20:55.157Z,19.24
2023-02-22T04:21:54.313Z,19.25
2023-02-22T04:22:54.645Z,19.25
2023-02-22T04:23:55.002Z,19.28
2023-02-22T04:24:56.579Z,19.28
2023-02-22T04:25:56.165Z,19.28
2023-02-22T04:26:55.792Z,19.29
2023-02-22T04:27:55.114Z,19.31
2023-02-22T04:28:56.335Z,19.31
2023-02-22T04:29:56.332Z,19.29
2023-02-22T04:30:55.445Z,19.29
2023-02-22T04:31:56.548Z,19.31
2023-02-22T04:32:56.654Z,19.31
2023-02-22T04:33:56.149Z,19.33
2023-02-22T04:34:56.892Z,19.32
2023-02-22T04:35:56.158Z,19.31
2023-02-22T04:36:56.615Z,19.33
2023-02-22T04:37:57.326Z,19.32
2023-02-22T04:38:57.610Z,19.33
2023-02-22T04:39:57.059Z,19.32
2023-02-22T04:40:57.780Z,19.33
2023-02-22T04:41:56.939Z,19.33
2023-02-22T04:42:58.032Z,19.32
2023-02-22T04:43:57.339Z,19.33
2023-02-22T04:44:57.809Z,19.35
2023-02-22T04:45:58.768Z,19.35
2023-02-22T04:46:57.704Z,19.32
2023-02-22T04:47:58.834Z,19.35
2023-02-22T04:48:59.219Z,19.33
2023-02-22T04:49:59.016Z,19.33
2023-02-22T04:50:59.942Z,19.33
2023-02-22T04:51:58.358Z,19.35
2023-02-22T04:52:59.420Z,19.33
2023-02-22T04:54:00.483Z,19.35
2023-02-22T04:54:58.959Z,19.35
2023-02-22T04:56:00.121Z,19.35
2023-02-22T04:57:00.109Z,19.33
2023-02-22T04:58:00.199Z,19.33
2023-02-22T04:58:59.672Z,19.36
2023-02-22T04:59:59.535Z,19.36
2023-02-22T05:00:59.609Z,19.36
2023-02-22T05:02:01.292Z,19.36
2023-02-22T05:03:00.315Z,19.36
2023-02-22T05:04:00.545Z,19.35
2023-02-22T05:05:01.395Z,19.36
2023-02-22T05:06:01.418Z,19.36
2023-02-22T05:07:01.467Z,19.38
2023-02-22T05:08:00.714Z,19.35
2023-02-22T05:09:01.542Z,19.36
2023-02-22T05:10:01.715Z,19.36
2023-02-22T05:11:01.934Z,19.38
2023-02-22T05:12:01.603Z,19.36
2023-02-22T05:13:04.022Z,19.36
2023-02-22T05:14:01.322Z,19.36
2023-02-22T05:15:02.363Z,19.38
2023-02-22T05:16:02.187Z,19.36
2023-02-22T05:17:02.661Z,19.38
2023-02-22T05:18:02.080Z,19.36
2023-02-22T05:19:01.958Z,19.36
2023-02-22T05:22:18.518Z,19.35
2023-02-22T05:23:19.336Z,19.35
2023-02-22T05:24:20.012Z,19.36
2023-02-22T05:25:19.048Z,19.36
2023-02-22T05:26:19.940Z,19.33
2023-02-22T05:27:20.047Z,19.33
2023-02-22T05:28:19.335Z,19.35
2023-02-22T05:29:20.198Z,19.36
2023-02-22T05:30:20.311Z,19.36
2023-02-22T05:31:20.719Z,19.36
2023-02-22T05:32:19.783Z,19.36
2023-02-22T05:33:20.726Z,19.36
2023-02-22T05:34:20.837Z,19.36
2023-02-22T05:35:20.398Z,19.35
2023-02-22T05:36:20.588Z,19.33
2023-02-22T05:37:20.532Z,19.36
2023-02-22T05:38:20.592Z,19.35
2023-02-22T05:39:20.596Z,19.36
2023-02-22T05:40:22.008Z,19.35
2023-02-22T05:41:22.014Z,19.36
2023-02-22T05:42:21.296Z,19.35
2023-02-22T05:43:21.614Z,19.35
2023-02-22T05:44:22.207Z,19.36
2023-02-22T05:45:22.520Z,19.36
2023-02-22T05:46:22.862Z,19.36
2023-02-22T05:47:21.819Z,19.36
2023-02-22T05:48:22.812Z,19.36
2023-02-22T05:49:22.962Z,19.38
2023-02-22T05:50:22.265Z,19.35
2023-02-22T05:51:23.280Z,19.36
2023-02-22T05:52:23.294Z,19.35
2023-02-22T05:53:23.425Z,19.35
2023-02-22T05:54:22.622Z,19.36
2023-02-22T05:55:23.198Z,19.35
2023-02-22T05:56:23.058Z,19.35
2023-02-22T05:57:23.925Z,19.36
2023-02-22T05:58:23.545Z,19.35
2023-02-22T05:59:24.134Z,19.36
2023-02-22T06:00:23.438Z,19.35
2023-02-22T06:01:24.757Z,19.35
2023-02-22T06:02:24.606Z,19.35
2023-02-22T06:03:23.964Z,19.35
2023-02-22T06:04:24.395Z,19.35
2023-02-22T06:05:24.336Z,19.36
2023-02-22T06:06:24.521Z,19.35
2023-02-22T06:07:24.381Z,19.33
2023-02-22T06:08:25.403Z,19.35
2023-02-22T06:09:25.433Z,19.35
2023-02-22T06:10:26.088Z,19.35
2023-02-22T06:11:24.830Z,19.35
2023-02-22T06:12:25.181Z,19.35
2023-02-22T06:13:25.284Z,19.33
2023-02-22T06:14:26.120Z,19.35
2023-02-22T06:15:25.405Z,19.32
2023-02-22T06:16:25.466Z,19.33
2023-02-22T06:17:26.620Z,19.32
2023-02-22T06:18:27.343Z,19.32
2023-02-22T06:19:26.236Z,19.33
2023-02-22T06:20:26.042Z,19.33
2023-02-22T06:21:27.089Z,19.32
2023-02-22T06:22:27.238Z,19.32
2023-02-22T06:23:27.501Z,19.33
2023-02-22T06:24:26.994Z,19.33
2023-02-22T06:25:27.918Z,19.32
2023-02-22T06:26:27.958Z,19.32
2023-02-22T06:27:27.202Z,19.32
2023-02-22T06:28:27.537Z,19.32
2023-02-22T06:29:27.407Z,19.33
2023-02-22T06:30:27.722Z,19.32
2023-02-22T06:31:28.104Z,19.32
2023-02-22T06:32:28.027Z,19.32
2023-02-22T06:33:28.806Z,19.32
2023-02-22T06:34:28.061Z,19.33
2023-02-22T06:35:28.302Z,19.33
2023-02-22T06:36:29.137Z,19.33
2023-02-22T06:37:29.947Z,19.32
2023-02-22T06:38:28.710Z,19.32
2023-02-22T06:39:28.823Z,19.32
2023-02-22T06:40:28.807Z,19.32
2023-02-22T06:41:29.250Z,19.32
2023-02-22T06:42:29.320Z,19.33
2023-02-22T06:43:29.275Z,19.31
2023-02-22T06:45:45.623Z,19.31
2023-02-22T06:46:47.312Z,19.32
2023-02-22T06:47:46.474Z,19.31
2023-02-22T06:48:45.806Z,19.32
2023-02-22T06:49:45.948Z,19.31
2023-02-22T06:50:47.123Z,19.31
2023-02-22T06:51:46.960Z,19.31
2023-02-22T06:52:46.787Z,19.31
2023-02-22T06:53:48.465Z,19.31
2023-02-22T06:54:47.060Z,19.32
2023-02-22T06:55:47.715Z,19.31
2023-02-22T06:56:47.807Z,19.31
2023-02-22T06:57:47.310Z,19.29
2023-02-22T06:58:47.064Z,19.32
2023-02-22T06:59:47.448Z,19.31
2023-02-22T07:00:47.797Z,19.31
2023-02-22T07:01:48.142Z,19.29
2023-02-22T07:02:48.585Z,19.32
2023-02-22T07:03:47.756Z,19.31
2023-02-22T07:04:47.959Z,19.31
2023-02-22T07:05:48.224Z,19.31
2023-02-22T07:06:52.512Z,19.31
2023-02-22T07:07:48.386Z,19.31
2023-02-22T07:08:48.782Z,19.31
2023-02-22T07:09:48.779Z,19.32
2023-02-22T07:10:50.058Z,19.31
2023-02-22T07:11:48.886Z,19.32
2023-02-22T07:12:49.314Z,19.31
2023-02-22T07:13:49.233Z,19.31
2023-02-22T07:14:49.517Z,19.32
2023-02-22T07:15:49.639Z,19.32
2023-02-22T07:16:49.480Z,19.32
2023-02-22T07:17:50.598Z,19.31
2023-02-22T07:18:49.973Z,19.32
2023-02-22T07:19:49.857Z,19.31
2023-02-22T07:20:50.102Z,19.31
2023-02-22T07:21:50.592Z,19.33
2023-02-22T07:22:50.500Z,19.32
2023-02-22T07:23:50.783Z,19.33
2023-02-22T07:24:50.708Z,19.33
2023-02-22T07:25:51.669Z,19.35
2023-02-22T07:26:51.857Z,19.32
2023-02-22T07:27:51.036Z,19.32
2023-02-22T07:28:51.241Z,19.33
2023-02-22T07:29:51.389Z,19.32
2023-02-22T07:30:51.630Z,19.32
2023-02-22T07:31:51.621Z,19.33
2023-02-22T07:32:51.737Z,19.33
2023-02-22T07:33:52.220Z,19.33
2023-02-22T07:34:52.264Z,19.33
2023-02-22T07:35:52.245Z,19.33
2023-02-22T07:36:52.360Z,19.35
2023-02-22T07:37:55.318Z,19.35
2023-02-22T07:38:52.706Z,19.33
2023-02-22T07:39:53.313Z,19.36
2023-02-22T07:40:53.715Z,19.35
2023-02-22T07:41:53.139Z,19.35
2023-02-22T07:42:53.221Z,19.35
2023-02-22T07:43:53.609Z,19.35
2023-02-22T07:44:53.758Z,19.35
2023-02-22T07:45:53.676Z,19.35
2023-02-22T07:46:53.917Z,19.36
2023-02-22T07:47:53.972Z,19.36
2023-02-22T07:48:54.356Z,19.35
2023-02-22T07:49:54.185Z,19.38
2023-02-22T07:50:54.207Z,19.36
2023-02-22T07:51:55.191Z,19.38
2023-02-22T07:52:54.396Z,19.38
2023-02-22T07:53:54.605Z,19.38
2023-02-22T07:54:54.703Z,19.39
2023-02-22T07:55:54.814Z,19.38
2023-02-22T07:56:55.339Z,19.39
2023-02-22T07:57:55.153Z,19.38
2023-02-22T07:58:55.344Z,19.39
2023-02-22T07:59:55.453Z,19.39
2023-02-22T08:00:55.588Z,19.40
2023-02-22T08:01:55.864Z,19.40
2023-02-22T08:02:55.723Z,19.39
2023-02-22T08:03:56.508Z,19.40
2023-02-22T08:04:56.211Z,19.42
2023-02-22T08:05:57.122Z,19.40
2023-02-22T08:06:56.261Z,19.43
2023-02-22T08:07:56.428Z,19.40
2023-02-22T08:08:56.758Z,19.42
2023-02-22T08:09:56.956Z,19.43
2023-02-22T08:10:57.703Z,19.43
2023-02-22T08:11:57.003Z,19.43
2023-02-22T08:12:57.511Z,19.42
2023-02-22T08:13:57.395Z,19.43
2023-02-22T08:15:01.558Z,19.43
2023-02-22T08:15:57.533Z,19.46
2023-02-22T08:16:57.876Z,19.46
2023-02-22T08:17:57.713Z,19.47
2023-02-22T08:18:58.038Z,19.48
2023-02-22T08:22:14.242Z,19.47
2023-02-22T08:23:15.181Z,19.50
2023-02-22T08:24:14.568Z,19.48
2023-02-22T08:25:14.686Z,19.50
2023-02-22T08:26:15.476Z,19.50
2023-02-22T08:27:14.778Z,19.50
2023-02-22T08:28:15.000Z,19.50
2023-02-22T08:29:15.153Z,19.48
2023-02-22T08:30:18.858Z,19.51
2023-02-22T08:31:17.142Z,19.51
2023-02-22T08:32:17.922Z,19.51
2023-02-22T08:33:17.504Z,19.53
2023-02-22T08:34:16.354Z,19.54
2023-02-22T08:35:16.195Z,19.53
2023-02-22T08:36:17.636Z,19.54
2023-02-22T08:37:16.992Z,19.54
2023-02-22T08:38:20.365Z,19.54
2023-02-22T08:39:16.423Z,19.54
2023-02-22T08:40:16.687Z,19.55
2023-02-22T08:41:17.143Z,19.55
2023-02-22T08:42:17.702Z,19.55
2023-02-22T08:43:18.408Z,19.55
2023-02-22T08:44:17.794Z,19.57
2023-02-22T08:45:17.674Z,19.58
2023-02-22T08:46:17.698Z,19.57
2023-02-22T08:47:17.613Z,19.58
2023-02-22T08:48:17.682Z,19.60
2023-02-22T08:49:17.823Z,19.60
2023-02-22T08:50:18.220Z,19.60
2023-02-22T08:51:18.494Z,19.60
2023-02-22T08:52:18.550Z,19.61
2023-02-22T08:53:18.836Z,19.60
2023-02-22T08:54:18.690Z,19.65
2023-02-22T08:55:19.101Z,19.65
2023-02-22T08:56:19.301Z,19.63
2023-02-22T08:57:21.633Z,19.65
2023-02-22T08:58:19.386Z,19.65
2023-02-22T08:59:19.183Z,19.63
2023-02-22T09:00:19.323Z,19.65
2023-02-22T09:01:27.993Z,19.65
2023-02-22T09:02:20.988Z,19.68
2023-02-22T09:03:20.908Z,19.69
2023-02-22T09:04:19.799Z,19.70
2023-02-22T09:05:41.277Z,19.72
2023-02-22T09:06:20.236Z,19.73
2023-02-22T09:07:20.308Z,19.75
2023-02-22T09:08:20.502Z,19.76
2023-02-22T09:09:20.674Z,19.76
2023-02-22T09:10:20.805Z,19.76
2023-02-22T09:11:21.002Z,19.76
2023-02-22T09:12:20.839Z,19.76
2023-02-22T09:13:21.116Z,19.78
2023-02-22T09:14:21.427Z,19.78
2023-02-22T09:15:21.211Z,19.78
2023-02-22T09:16:21.384Z,19.78
2023-02-22T09:17:22.382Z,19.78
2023-02-22T09:18:22.672Z,19.79
2023-02-22T09:19:22.122Z,19.80
2023-02-22T09:20:21.850Z,19.79
2023-02-22T09:21:22.111Z,19.80
2023-02-22T09:22:22.338Z,19.80
2023-02-22T09:23:22.290Z,19.83
2023-02-22T09:24:22.430Z,19.80
2023-02-22T09:25:22.658Z,19.84
2023-02-22T09:26:22.730Z,19.84
2023-02-22T09:27:22.778Z,19.84
2023-02-22T09:28:23.660Z,19.84
2023-02-22T09:29:23.065Z,19.84
2023-02-22T09:30:28.212Z,19.86
2023-02-22T09:31:23.520Z,19.84
2023-02-22T09:32:24.589Z,19.87
2023-02-22T09:33:24.166Z,19.87
2023-02-22T09:34:23.654Z,19.87
2023-02-22T09:35:24.378Z,19.87
2023-02-22T09:36:26.085Z,19.87
2023-02-22T09:37:24.139Z,19.88
2023-02-22T09:38:24.589Z,19.90
2023-02-22T09:39:24.492Z,19.88
2023-02-22T09:40:24.482Z,19.90
2023-02-22T09:41:24.861Z,19.90
2023-02-22T09:42:24.806Z,19.91
2023-02-22T09:43:24.925Z,19.93
2023-02-22T09:44:25.045Z,19.91
2023-02-22T09:47:41.973Z,19.91
2023-02-22T09:48:45.374Z,19.91
2023-02-22T09:49:41.644Z,19.91
2023-02-22T09:50:41.779Z,19.91
2023-02-22T09:51:42.854Z,19.88
2023-02-22T09:52:42.778Z,19.90
2023-02-22T09:53:42.665Z,19.90
2023-02-22T09:54:42.276Z,19.91
2023-02-22T09:55:42.514Z,19.90
2023-02-22T09:56:43.543Z,19.90
2023-02-22T09:57:43.014Z,19.90
2023-02-22T09:58:43.485Z,19.91
2023-02-22T09:59:43.372Z,19.93
2023-02-22T10:00:43.414Z,19.90
2023-02-22T10:01:43.457Z,19.91
2023-02-22T10:13:11.481Z,19.78
2023-02-22T10:14:11.506Z,19.78
2023-02-22T10:15:11.918Z,19.76
2023-02-22T10:16:12.102Z,19.78
2023-02-22T10:17:12.202Z,19.79
2023-02-22T10:18:11.919Z,19.83
2023-02-22T10:19:12.169Z,19.84
2023-02-22T10:20:12.160Z,19.87
2023-02-22T10:21:14.207Z,19.87
2023-02-22T10:22:13.016Z,19.90
2023-02-22T10:23:12.690Z,19.94
2023-02-22T10:24:13.746Z,19.95
2023-02-22T10:25:13.197Z,19.95
2023-02-22T10:26:13.833Z,19.97
2023-02-22T10:27:13.371Z,19.98
2023-02-22T10:28:13.524Z,19.98
2023-02-22T10:29:14.524Z,20.00
2023-02-22T10:30:24.131Z,20.03
2023-02-22T10:31:15.074Z,20.05
2023-02-22T10:32:14.960Z,20.06
2023-02-22T10:33:14.263Z,20.08
2023-02-22T10:34:14.299Z,20.09
2023-02-22T10:35:14.621Z,20.09
2023-02-22T10:36:15.197Z,20.09
2023-02-22T10:37:14.834Z,20.12
2023-02-22T10:38:14.710Z,20.10
2023-02-22T10:39:14.861Z,20.12
2023-02-22T10:40:15.987Z,20.13
2023-02-22T10:41:17.481Z,20.16
2023-02-22T10:42:16.183Z,20.16
2023-02-22T10:43:16.227Z,20.18
2023-02-22T10:44:15.806Z,20.18
2023-02-22T10:45:15.701Z,20.18
2023-02-22T10:46:16.768Z,20.20
2023-02-22T10:47:18.101Z,20.20
2023-02-22T10:48:16.802Z,20.20
2023-02-22T10:49:16.853Z,20.21
2023-02-22T10:50:16.709Z,20.21
2023-02-22T10:51:16.514Z,20.23
2023-02-22T10:52:17.071Z,20.23
2023-02-22T10:53:17.184Z,20.23
2023-02-22T10:54:17.316Z,20.23
2023-02-22T10:55:17.105Z,20.23
2023-02-22T10:56:18.312Z,20.27
2023-02-22T10:57:17.520Z,20.25
2023-02-22T10:58:17.709Z,20.27
2023-02-22T10:59:17.933Z,20.27
2023-02-22T11:00:18.056Z,20.27
2023-02-22T11:01:18.380Z,20.28
2023-02-22T11:02:17.969Z,20.27
2023-02-22T11:03:22.866Z,20.30
2023-02-22T11:04:19.104Z,20.30
2023-02-22T11:05:18.839Z,20.28
2023-02-22T11:06:18.599Z,20.30
2023-02-22T11:07:19.159Z,20.30
2023-02-22T11:08:18.828Z,20.30
2023-02-22T11:09:19.842Z,20.30
2023-02-22T11:10:19.210Z,20.31
2023-02-22T11:11:19.135Z,20.31
2023-02-22T11:12:19.249Z,20.33
2023-02-22T11:13:23.881Z,20.31
2023-02-22T11:14:19.727Z,20.31
2023-02-22T11:15:19.696Z,20.31
2023-02-22T11:16:20.690Z,20.33
2023-02-22T11:17:19.994Z,20.31
2023-02-22T11:18:20.345Z,20.33
2023-02-22T11:19:21.243Z,20.35
2023-02-22T11:20:20.329Z,20.33
2023-02-22T11:21:20.620Z,20.35
2023-02-22T11:22:20.649Z,20.34
2023-02-22T11:23:20.765Z,20.34
2023-02-22T11:25:01.631Z,20.34
2023-02-22T11:25:56.216Z,20.35
2023-02-22T11:26:58.271Z,20.35
2023-02-22T11:27:56.701Z,20.35
2023-02-22T11:28:56.645Z,20.35
2023-02-22T11:29:56.964Z,20.38
2023-02-22T11:30:57.617Z,20.38
2023-02-22T11:31:58.229Z,20.39
2023-02-22T11:32:57.691Z,20.38
2023-02-22T11:34:03.716Z,20.38
2023-02-22T11:35:08.630Z,20.38
2023-02-22T11:35:59.840Z,20.39
2023-02-22T11:36:58.189Z,20.39
2023-02-22T11:37:57.940Z,20.39
2023-02-22T11:38:58.119Z,20.41
2023-02-22T11:39:58.420Z,20.41
2023-02-22T11:40:59.369Z,20.42
2023-02-22T11:42:00.086Z,20.41
2023-02-22T11:42:58.547Z,20.43
2023-02-22T11:43:58.666Z,20.42
2023-02-22T11:44:59.073Z,20.42
2023-02-22T11:46:00.553Z,20.43
2023-02-22T11:46:59.536Z,20.43
2023-02-22T11:47:59.203Z,20.43
2023-02-22T11:48:59.398Z,20.46
2023-02-22T11:49:59.504Z,20.43
2023-02-22T11:50:59.635Z,20.46
2023-02-22T11:52:00.622Z,20.47
2023-02-22T11:52:59.933Z,20.49
2023-02-22T11:54:04.066Z,20.47
2023-02-22T11:55:01.053Z,20.49
2023-02-22T11:56:02.650Z,20.49
2023-02-22T11:57:00.566Z,20.49
2023-02-22T11:58:00.701Z,20.49
2023-02-22T11:59:01.118Z,20.51
2023-02-22T12:00:01.730Z,20.51
2023-02-22T12:01:00.992Z,20.51
2023-02-22T12:02:01.132Z,20.50
2023-02-22T12:03:01.365Z,20.51
2023-02-22T12:04:01.410Z,20.51
2023-02-22T12:05:01.600Z,20.50
2023-02-22T12:06:01.689Z,20.51
2023-02-22T12:07:01.891Z,20.51
2023-02-22T12:08:13.806Z,20.53
2023-02-22T12:09:03.433Z,20.54
2023-02-22T12:10:02.198Z,20.53
2023-02-22T12:11:02.324Z,20.54
2023-02-22T12:12:02.435Z,20.54
2023-02-22T12:13:02.574Z,20.56
2023-02-22T12:14:02.844Z,20.56
2023-02-22T12:15:03.162Z,20.58
2023-02-22T12:16:03.570Z,20.58
2023-02-22T12:17:03.668Z,20.59
2023-02-22T12:18:03.996Z,20.58
2023-02-22T12:19:03.921Z,20.59
2023-02-22T12:20:03.601Z,20.61
2023-02-22T12:21:04.104Z,20.61
2023-02-22T12:22:03.741Z,20.61
2023-02-22T12:23:03.932Z,20.62
2023-02-22T12:24:04.253Z,20.62
2023-02-22T12:25:09.523Z,20.64
2023-02-22T12:26:05.425Z,20.62
2023-02-22T12:27:06.483Z,20.62
2023-02-22T12:28:10.029Z,20.65
2023-02-22T12:29:05.914Z,20.64
2023-02-22T12:30:04.990Z,20.65
2023-02-22T12:31:05.048Z,20.66
2023-02-22T12:32:05.164Z,20.65
2023-02-22T12:33:06.415Z,20.68
2023-02-22T12:34:05.934Z,20.66
2023-02-22T12:35:05.574Z,20.68
2023-02-22T12:36:05.794Z,20.68
2023-02-22T12:37:05.997Z,20.68
2023-02-22T12:38:06.015Z,20.68
2023-02-22T12:39:07.694Z,20.69
2023-02-22T12:40:06.288Z,20.69
2023-02-22T12:41:07.126Z,20.71
2023-02-22T12:42:06.623Z,20.71
2023-02-22T12:43:06.834Z,20.71
2023-02-22T12:44:07.043Z,20.71
2023-02-22T12:45:08.323Z,20.71
2023-02-22T12:46:07.397Z,20.72
2023-02-22T12:47:07.464Z,20.71
2023-02-22T12:50:23.883Z,20.72
2023-02-22T12:51:23.875Z,20.72
2023-02-22T12:52:23.904Z,20.72
2023-02-22T12:53:24.005Z,20.72
2023-02-22T12:54:24.406Z,20.74
2023-02-22T12:55:25.127Z,20.76
2023-02-22T12:56:24.653Z,20.76
2023-02-22T12:57:24.734Z,20.74
2023-02-22T12:58:24.647Z,20.74
2023-02-22T12:59:24.786Z,20.77
2023-02-22T13:00:25.887Z,20.77
2023-02-22T13:01:25.432Z,20.77
2023-02-22T13:02:25.177Z,20.77
2023-02-22T13:03:25.604Z,20.77
2023-02-22T13:04:25.595Z,20.80
2023-02-22T13:05:26.627Z,20.79
2023-02-22T13:06:25.936Z,20.80
2023-02-22T13:07:26.042Z,20.79
2023-02-22T13:08:26.051Z,20.80
2023-02-22T13:09:26.570Z,20.81
2023-02-22T13:10:26.200Z,20.81
2023-02-22T13:11:26.466Z,20.81
2023-02-22T13:12:26.496Z,20.81
2023-02-22T13:13:26.691Z,20.83
2023-02-22T13:14:26.810Z,20.84
2023-02-22T13:15:26.909Z,20.83
2023-02-22T13:16:27.434Z,20.84
2023-02-22T13:17:28.145Z,20.84
2023-02-22T13:18:27.749Z,20.84
2023-02-22T13:19:27.530Z,20.86
2023-02-22T13:20:28.084Z,20.86
2023-02-22T13:21:28.765Z,20.87
2023-02-22T13:22:27.880Z,20.87
2023-02-22T13:23:28.359Z,20.87
2023-02-22T13:24:28.586Z,20.87
2023-02-22T13:25:28.414Z,20.87
2023-02-22T13:26:28.430Z,20.87
2023-02-22T13:27:28.623Z,20.87
2023-02-22T13:28:29.176Z,20.87
2023-02-22T13:29:29.158Z,20.87
2023-02-22T13:30:28.992Z,20.89
2023-02-22T13:31:29.126Z,20.90
2023-02-22T13:32:29.339Z,20.89
2023-02-22T13:33:30.996Z,20.89
2023-02-22T13:34:30.982Z,20.90
2023-02-22T13:35:30.539Z,20.91
2023-02-22T13:36:29.901Z,20.90
2023-02-22T13:37:30.324Z,20.91
2023-02-22T13:38:30.040Z,20.91
2023-02-22T13:39:31.085Z,20.91
2023-02-22T13:40:30.453Z,20.91
2023-02-22T13:41:30.545Z,20.93
2023-02-22T13:42:30.984Z,20.93
2023-02-22T13:43:31.195Z,20.91
2023-02-22T13:44:30.866Z,20.91
2023-02-22T13:45:30.997Z,20.93
2023-02-22T13:46:31.158Z,20.93
2023-02-22T13:47:32.144Z,20.93
2023-02-22T13:48:31.954Z,20.91
2023-02-22T13:49:31.639Z,20.91
2023-02-22T13:50:31.822Z,20.91
2023-02-22T13:51:32.736Z,20.91
2023-02-22T13:52:31.939Z,20.90
2023-02-22T13:53:33.824Z,20.91
2023-02-22T13:54:32.472Z,20.91
2023-02-22T13:55:32.363Z,20.90
2023-02-22T13:56:32.513Z,20.91
2023-02-22T13:57:32.811Z,20.90
2023-02-22T13:58:33.752Z,20.91
2023-02-22T13:59:35.955Z,20.90
2023-02-22T14:00:33.030Z,20.90
2023-02-22T14:01:33.140Z,20.89
2023-02-22T14:02:33.440Z,20.89
2023-02-22T14:03:33.459Z,20.89
2023-02-22T14:04:33.791Z,20.89
2023-02-22T14:05:34.816Z,20.90
2023-02-22T14:06:34.213Z,20.89
2023-02-22T14:07:33.980Z,20.89
2023-02-22T14:08:34.940Z,20.87
2023-02-22T14:09:34.138Z,20.87
2023-02-22T14:10:36.012Z,20.86
2023-02-22T14:11:34.459Z,20.86
2023-02-22T14:12:34.650Z,20.86
2023-02-22T14:13:34.948Z,20.86
2023-02-22T14:16:51.244Z,20.83
2023-02-22T14:17:51.554Z,20.84
2023-02-22T14:18:51.573Z,20.84
2023-02-22T14:19:51.474Z,20.83
2023-02-22T14:20:52.688Z,20.81
2023-02-22T14:21:52.104Z,20.81
2023-02-22T14:22:53.197Z,20.80
2023-02-22T14:23:52.021Z,20.80
2023-02-22T14:24:52.143Z,20.79
2023-02-22T14:25:52.563Z,20.79
2023-02-22T14:26:52.646Z,20.77
2023-02-22T14:27:53.449Z,20.77
2023-02-22T14:28:53.695Z,20.77
2023-02-22T14:29:52.863Z,20.77
2023-02-22T14:30:53.077Z,20.76
2023-02-22T14:31:53.465Z,20.74
2023-02-22T14:32:54.230Z,20.74
2023-02-22T14:33:53.323Z,20.74
2023-02-22T14:34:53.724Z,20.72
2023-02-22T14:35:53.571Z,20.74
2023-02-22T14:36:54.897Z,20.72
2023-02-22T14:37:54.246Z,20.71
2023-02-22T14:38:54.154Z,20.71
2023-02-22T14:39:54.162Z,20.69
2023-02-22T14:40:54.282Z,20.69
2023-02-22T14:41:54.691Z,20.69
2023-02-22T14:42:54.519Z,20.68
2023-02-22T14:43:55.527Z,20.68
2023-02-22T14:44:55.641Z,20.66
2023-02-22T14:45:54.872Z,20.68
2023-02-22T14:46:55.223Z,20.68
2023-02-22T14:47:56.249Z,20.66
2023-02-22T14:48:55.350Z,20.68
2023-02-22T14:49:55.759Z,20.65
2023-02-22T14:50:55.796Z,20.66
2023-02-22T14:51:55.787Z,20.65
2023-02-22T14:52:55.988Z,20.64
2023-02-22T14:53:56.847Z,20.64
2023-02-22T14:54:56.214Z,20.64
2023-02-22T14:55:57.451Z,20.64
2023-02-22T14:56:56.269Z,20.61
2023-02-22T14:57:56.402Z,20.62
2023-02-22T14:58:56.735Z,20.61
2023-02-22T14:59:56.661Z,20.61
2023-02-22T15:00:57.056Z,20.61
2023-02-22T15:02:10.787Z,20.59
2023-02-22T15:02:58.265Z,20.59
2023-02-22T15:04:07.042Z,20.59
2023-02-22T15:04:58.457Z,20.59
2023-02-22T15:05:57.619Z,20.58
2023-02-22T15:06:57.607Z,20.59
2023-02-22T15:07:58.146Z,20.58
2023-02-22T15:08:57.927Z,20.54
2023-02-22T15:09:58.346Z,20.54
2023-02-22T15:10:59.161Z,20.54
2023-02-22T15:11:58.484Z,20.54
2023-02-22T15:12:58.606Z,20.54
2023-02-22T15:13:58.592Z,20.53
2023-02-22T15:14:59.693Z,20.53
2023-02-22T15:16:01.384Z,20.53
2023-02-22T15:16:59.207Z,20.51
2023-02-22T15:18:00.108Z,20.53
2023-02-22T15:19:00.266Z,20.51
2023-02-22T15:20:00.976Z,20.50
2023-02-22T15:20:59.461Z,20.51
2023-02-22T15:22:00.987Z,20.51
2023-02-22T15:23:00.995Z,20.51
2023-02-22T15:24:01.014Z,20.50
2023-02-22T15:25:01.049Z,20.50
2023-02-22T15:26:00.200Z,20.51
2023-02-22T15:27:03.481Z,20.47
2023-02-22T15:28:00.953Z,20.49
2023-02-22T15:29:00.941Z,20.47
2023-02-22T15:30:00.938Z,20.49
2023-02-22T15:31:00.843Z,20.46
2023-02-22T15:32:01.086Z,20.47
2023-02-22T15:33:04.747Z,20.46
2023-02-22T15:34:02.210Z,20.46
2023-02-22T15:35:01.380Z,20.46
2023-02-22T15:36:01.512Z,20.46
2023-02-22T15:37:01.652Z,20.43
2023-02-22T15:38:02.220Z,20.43
2023-02-22T15:39:02.229Z,20.42
2023-02-22T15:42:22.133Z,20.41
2023-02-22T15:43:19.350Z,20.41
2023-02-22T15:44:23.612Z,20.38
2023-02-22T15:45:19.074Z,20.38
2023-02-22T15:46:19.268Z,20.39
2023-02-22T15:47:19.170Z,20.38
2023-02-22T15:48:19.090Z,20.38
2023-02-22T15:49:20.196Z,20.38
2023-02-22T15:50:20.734Z,20.38
2023-02-22T15:51:20.070Z,20.35
2023-02-22T15:52:19.683Z,20.34
2023-02-22T15:53:20.814Z,20.34
2023-02-22T15:54:26.998Z,20.35
2023-02-22T15:55:21.489Z,20.34
2023-02-22T15:56:20.570Z,20.35
2023-02-22T15:57:20.570Z,20.34
2023-02-22T15:58:20.897Z,20.33
2023-02-22T15:59:20.913Z,20.33
2023-02-22T16:00:20.818Z,20.33
2023-02-22T16:12:23.251Z,20.02
2023-02-22T16:13:31.680Z,20.00
2023-02-22T16:14:25.535Z,19.98
2023-02-22T16:15:24.569Z,19.97
2023-02-22T16:16:24.033Z,19.98
2023-02-22T16:17:24.117Z,19.98
2023-02-22T16:18:24.508Z,19.98
2023-02-22T16:19:24.086Z,20.00
2023-02-22T16:20:25.253Z,20.02
2023-02-22T16:21:24.366Z,20.05
2023-02-22T16:22:24.735Z,20.03
2023-02-22T16:23:25.633Z,20.03
2023-02-22T16:24:26.287Z,20.06
2023-02-22T16:25:26.926Z,20.06
2023-02-22T16:26:25.303Z,20.08
2023-02-22T16:27:26.174Z,20.06
2023-02-22T16:28:25.398Z,20.08
2023-02-22T16:29:25.755Z,20.10
2023-02-22T16:30:26.101Z,20.09
2023-02-22T16:31:25.874Z,20.09
2023-02-22T16:32:25.970Z,20.09
2023-02-22T16:33:26.132Z,20.08
2023-02-22T16:34:27.092Z,20.10
2023-02-22T16:35:26.250Z,20.08
2023-02-22T16:36:27.485Z,20.09
2023-02-22T16:37:26.503Z,20.10
2023-02-22T16:38:26.611Z,20.09
2023-02-22T16:39:27.799Z,20.06
2023-02-22T16:40:27.002Z,20.09
2023-02-22T16:41:28.462Z,20.08
2023-02-22T16:42:28.489Z,20.08
2023-02-22T16:43:28.540Z,20.06
2023-02-22T16:44:27.958Z,20.06
2023-02-22T16:45:28.667Z,20.08
2023-02-22T16:46:29.270Z,20.08
2023-02-22T16:47:28.024Z,20.06
2023-02-22T16:48:28.150Z,20.06
2023-02-22T16:49:29.746Z,20.06
2023-02-22T16:50:29.766Z,20.05
2023-02-22T16:51:29.789Z,20.06
2023-02-22T16:52:28.760Z,20.05
2023-02-22T16:53:28.838Z,20.05
2023-02-22T16:54:29.476Z,20.05
2023-02-22T16:55:29.126Z,20.03
2023-02-22T16:56:31.422Z,20.05
2023-02-22T16:57:30.289Z,20.03
2023-02-22T16:58:29.886Z,20.05
2023-02-22T16:59:29.792Z,20.03
2023-02-22T17:00:30.193Z,20.03
2023-02-22T17:01:30.421Z,20.03
2023-02-22T17:02:30.204Z,20.02
2023-02-22T17:03:31.153Z,20.02
2023-02-22T17:04:30.536Z,20.00
2023-02-22T17:05:30.828Z,20.02
2023-02-22T17:06:30.543Z,20.02
2023-02-22T17:07:30.593Z,20.02
2023-02-22T17:08:30.776Z,20.02
2023-02-22T17:09:31.851Z,20.00
2023-02-22T17:10:32.320Z,19.98
2023-02-22T17:11:31.302Z,20.02
2023-02-22T17:12:32.299Z,20.00
2023-02-22T17:13:31.549Z,20.00
2023-02-22T17:14:31.617Z,20.00
2023-02-22T17:15:33.176Z,20.00
2023-02-22T17:16:32.760Z,19.97
2023-02-22T17:17:33.670Z,19.98
2023-02-22T17:18:32.269Z,20.00
2023-02-22T17:19:32.260Z,19.97
2023-02-22T17:20:33.380Z,19.97
2023-02-22T17:21:32.583Z,19.97
2023-02-22T17:22:33.819Z,19.97
2023-02-22T17:23:32.818Z,19.95
2023-02-22T17:24:32.987Z,19.95
2023-02-22T17:25:34.170Z,19.95
2023-02-22T17:26:33.229Z,19.94
2023-02-22T17:27:34.291Z,19.95
2023-02-22T17:28:35.014Z,19.94
2023-02-22T17:29:33.879Z,19.97